createdAt,value
2022-12-25T07:26:24.399Z,94.71
2022-12-25T07:29:14.645Z,94.64
2022-12-25T11:57:57.620Z,83.60
2022-12-25T12:23:24.102Z,64.40
2022-12-25T12:31:13.062Z,61.63
2022-12-25T12:34:24.314Z,60.68
2022-12-25T12:37:24.816Z,61.20
2022-12-25T12:40:30.754Z,61.13
2022-12-25T12:43:29.607Z,62.29
2022-12-25T12:46:27.981Z,63.46
2022-12-25T12:49:23.946Z,64.76
2022-12-25T12:52:27.443Z,66.08
2022-12-25T12:55:29.179Z,66.65
2022-12-25T12:58:30.050Z,67.69
2022-12-25T13:01:29.776Z,68.40
2022-12-25T13:04:34.892Z,69.36
2022-12-25T13:07:34.441Z,70.36
2022-12-25T13:10:27.402Z,71.25
2022-12-25T13:13:21.774Z,71.84
2022-12-25T13:16:19.032Z,72.72
2022-12-25T13:19:13.730Z,73.53
2022-12-25T13:22:26.031Z,74.11
2022-12-25T13:25:22.696Z,74.26
2022-12-25T13:28:18.475Z,74.58
2022-12-25T13:31:15.787Z,75.01
2022-12-25T13:34:07.372Z,75.08
2022-12-25T13:36:59.661Z,74.72
2022-12-25T13:39:57.363Z,74.20
2022-12-25T13:42:52.771Z,74.14
2022-12-25T13:45:43.368Z,73.79
2022-12-25T13:48:34.194Z,73.64
2022-12-25T13:51:24.765Z,73.94
2022-12-25T13:54:16.295Z,74.00
2022-12-25T13:57:10.689Z,74.02
2022-12-25T14:00:04.629Z,74.27
2022-12-25T14:02:55.996Z,74.48
2022-12-25T14:05:46.880Z,74.89
2022-12-25T14:08:37.939Z,75.35
2022-12-25T14:11:30.245Z,75.56
2022-12-25T14:14:23.518Z,76.14
2022-12-25T14:17:16.462Z,76.50
2022-12-25T14:20:09.051Z,76.83
2022-12-25T14:23:01.018Z,77.06
2022-12-25T14:25:51.640Z,77.14
2022-12-25T14:28:42.162Z,77.09
2022-12-25T14:31:34.259Z,77.29
2022-12-25T14:34:28.707Z,77.48
2022-12-25T14:37:20.809Z,77.53
2022-12-25T14:40:23.687Z,77.61
2022-12-25T14:43:23.360Z,77.78
2022-12-25T14:46:24.158Z,77.84
2022-12-25T14:49:26.901Z,77.99
2022-12-25T14:52:22.698Z,78.16
2022-12-25T14:55:21.124Z,78.27
2022-12-25T14:58:21.092Z,78.47
2022-12-25T15:01:25.410Z,78.61
2022-12-25T15:04:17.469Z,78.88
2022-12-25T15:07:10.665Z,79.13
2022-12-25T15:10:57.051Z,79.48
2022-12-25T15:13:15.825Z,79.86
2022-12-25T15:16:16.283Z,79.90
2022-12-25T15:19:08.478Z,80.21
2022-12-25T15:22:02.638Z,80.41
2022-12-25T15:25:02.504Z,80.60
2022-12-25T15:27:55.882Z,80.87
2022-12-25T15:30:46.617Z,81.07
2022-12-25T15:33:43.982Z,81.42
2022-12-25T15:36:35.624Z,81.81
2022-12-25T15:39:25.993Z,82.01
2022-12-25T15:42:22.938Z,82.23
2022-12-25T15:45:20.972Z,82.60
2022-12-25T15:48:11.850Z,82.62
2022-12-25T15:51:04.965Z,82.94
2022-12-25T15:53:56.123Z,83.11
2022-12-25T15:56:48.803Z,83.37
2022-12-25T15:59:43.598Z,83.47
2022-12-25T16:02:34.746Z,83.70
2022-12-25T16:05:26.306Z,83.78
2022-12-25T16:08:16.784Z,84.18
2022-12-25T16:11:08.493Z,84.08
2022-12-25T16:14:00.659Z,84.27
2022-12-25T16:17:18.933Z,84.17
2022-12-25T16:20:17.464Z,84.35
2022-12-25T16:23:10.661Z,84.43
2022-12-25T16:26:04.283Z,84.51
2022-12-25T16:29:01.164Z,84.62
2022-12-25T16:32:01.621Z,84.75
2022-12-25T16:34:52.512Z,84.78
2022-12-25T16:37:51.295Z,84.90
2022-12-25T16:40:55.395Z,84.94
2022-12-25T16:43:56.223Z,85.05
2022-12-25T16:46:47.813Z,85.21
2022-12-25T16:49:38.651Z,85.23
2022-12-25T16:52:29.614Z,85.30
2022-12-25T16:55:24.981Z,85.38
2022-12-25T16:58:18.631Z,85.51
2022-12-25T17:01:15.228Z,85.43
2022-12-25T17:04:05.859Z,85.71
2022-12-25T17:06:56.289Z,85.55
2022-12-25T17:09:47.878Z,85.76
2022-12-25T17:12:38.282Z,85.96
2022-12-25T17:15:36.226Z,86.06
2022-12-25T17:18:28.929Z,86.05
2022-12-25T17:21:19.243Z,86.02
2022-12-25T17:24:10.473Z,86.34
2022-12-25T17:27:01.035Z,86.55
2022-12-25T17:29:53.895Z,87.01
2022-12-25T17:32:54.076Z,87.19
2022-12-25T17:35:48.207Z,87.67
2022-12-25T17:38:41.551Z,88.16
2022-12-25T17:41:32.096Z,88.43
2022-12-25T17:44:22.333Z,88.56
2022-12-25T17:47:12.653Z,88.87
2022-12-25T17:50:03.065Z,89.18
2022-12-25T17:52:54.013Z,89.29
2022-12-25T17:55:44.560Z,89.41
2022-12-25T17:58:39.308Z,89.34
2022-12-25T18:01:31.950Z,89.22
2022-12-25T18:04:22.321Z,89.19
2022-12-25T18:07:12.803Z,89.38
2022-12-25T18:10:03.297Z,89.43
2022-12-25T18:12:53.831Z,89.60
2022-12-25T18:15:44.440Z,89.59
2022-12-25T18:18:35.136Z,89.67
2022-12-25T18:21:28.745Z,89.71
2022-12-25T18:24:19.478Z,89.90
2022-12-25T18:27:09.940Z,90.11
2022-12-25T18:30:00.610Z,90.05
2022-12-25T18:32:51.740Z,90.19
2022-12-25T18:35:42.787Z,89.11
2022-12-25T18:38:33.344Z,88.37
2022-12-25T18:41:27.110Z,88.25
2022-12-25T18:44:21.325Z,88.53
2022-12-25T18:47:13.836Z,88.86
2022-12-25T18:50:04.395Z,89.42
2022-12-25T18:52:54.830Z,90.58
2022-12-25T18:55:45.430Z,91.45
2022-12-25T18:58:37.616Z,90.87
2022-12-25T19:01:28.169Z,90.89
2022-12-25T19:04:18.826Z,91.18
2022-12-25T19:07:10.910Z,91.29
2022-12-25T19:10:04.436Z,91.25
2022-12-25T19:12:57.912Z,91.17
2022-12-25T19:15:49.970Z,91.34
2022-12-25T19:18:41.363Z,91.33
2022-12-25T19:21:31.849Z,91.47
2022-12-25T19:24:25.107Z,91.48
2022-12-25T19:27:15.501Z,91.22
2022-12-25T19:30:06.683Z,90.77
2022-12-25T19:32:59.724Z,90.80
2022-12-25T19:35:50.129Z,90.55
2022-12-25T19:38:40.587Z,90.79
2022-12-25T19:41:31.414Z,90.97
2022-12-25T19:44:22.126Z,91.24
2022-12-25T19:47:16.082Z,91.64
2022-12-25T19:50:10.246Z,91.33
2022-12-25T19:53:00.781Z,90.38
2022-12-25T19:55:52.453Z,89.86
2022-12-25T19:58:45.079Z,89.85
2022-12-25T20:01:43.581Z,89.58
2022-12-25T20:04:34.320Z,89.66
2022-12-25T20:07:26.214Z,89.79
2022-12-25T20:10:17.383Z,90.04
2022-12-25T20:13:07.830Z,90.25
2022-12-25T20:16:02.453Z,90.59
2022-12-25T20:18:53.470Z,90.93
2022-12-25T20:21:44.039Z,91.13
2022-12-25T20:24:34.565Z,91.46
2022-12-25T20:27:25.459Z,91.61
2022-12-25T20:30:16.321Z,91.85
2022-12-25T20:33:21.279Z,92.04
2022-12-25T20:36:13.010Z,92.37
2022-12-25T20:39:12.875Z,92.63
2022-12-25T20:42:09.808Z,92.73
2022-12-25T21:32:16.285Z,93.61
2022-12-25T21:35:05.433Z,93.62
2022-12-25T21:37:53.859Z,93.66
2022-12-25T21:40:42.352Z,93.71
2022-12-25T21:43:30.891Z,93.86
2022-12-25T21:46:19.759Z,93.64
2022-12-25T21:49:09.133Z,93.50
2022-12-25T21:52:10.424Z,93.50
2022-12-25T21:54:58.968Z,93.47
2022-12-25T21:57:47.768Z,93.55
2022-12-25T22:00:38.831Z,93.50
2022-12-25T22:03:27.430Z,93.38
2022-12-25T22:06:34.793Z,93.28
2022-12-25T22:09:23.448Z,93.26
2022-12-25T22:12:34.131Z,93.41
2022-12-25T22:15:22.971Z,93.48
2022-12-25T22:18:29.621Z,93.46
2022-12-25T22:21:19.779Z,93.29
2022-12-25T22:24:09.099Z,93.32
2022-12-25T22:26:57.341Z,93.39
2022-12-25T22:29:46.269Z,93.43
2022-12-25T22:32:34.459Z,93.57
2022-12-25T22:35:23.265Z,93.64
2022-12-25T22:38:11.823Z,93.55
2022-12-25T22:41:04.427Z,93.43
2022-12-25T22:44:16.640Z,93.37
2022-12-25T22:47:01.402Z,93.17
2022-12-25T22:49:51.849Z,93.11
2022-12-25T22:52:40.567Z,93.05
2022-12-25T22:55:29.114Z,93.01
2022-12-25T22:58:18.165Z,93.03
2022-12-25T23:01:09.789Z,93.21
2022-12-25T23:03:58.608Z,93.13
2022-12-25T23:06:47.164Z,93.23
2022-12-25T23:09:35.939Z,93.45
2022-12-25T23:12:42.599Z,93.67
2022-12-25T23:15:31.998Z,93.50
2022-12-25T23:18:38.545Z,93.50
2022-12-25T23:21:46.209Z,93.46
2022-12-25T23:24:53.045Z,93.65
2022-12-25T23:27:41.902Z,93.76
2022-12-25T23:30:30.408Z,93.91
2022-12-25T23:33:18.990Z,93.98
2022-12-25T23:36:08.263Z,94.02
2022-12-25T23:38:57.627Z,94.07
2022-12-25T23:41:48.871Z,94.16
2022-12-25T23:44:37.551Z,94.22
2022-12-25T23:47:26.250Z,94.15
2022-12-25T23:50:14.852Z,94.21
2022-12-25T23:53:03.852Z,94.20
2022-12-25T23:55:55.830Z,94.30
2022-12-25T23:58:50.892Z,94.45
